Time;durP1;ratioP1;P1;durP2;ratioP2;P2;SDS_P1;SDS_P2;PMS_P1;PMS_P2;Temp;Humidity;BMP_temperature;BMP_pressure;BME280_temperature;BME280_humidity;BME280_pressure;Samples;Min_cycle;Max_cycle;Signal;HPM_P1;HPM_P2
2023/12/30 00:00:23;;;;;;;;;;;;;;;;;;106895;1254;61756;-80
2023/12/30 00:03:10;;;;;;;;;;;;;;;;;;106836;1254;60539;-80
2023/12/30 00:05:36;;;;;;;;;;;;;;;;;;106801;1257;61710;-80
2023/12/30 00:08:02;;;;;;;;;;;;;;;;;;106829;1257;60550;-80
2023/12/30 00:10:30;;;;;;;;;;;;;;;;;;106840;1256;61151;-79
2023/12/30 00:12:56;;;;;;;;;;;;;;;;;;106853;1253;62853;-80
2023/12/30 00:15:23;;;;;;;;;;;;;;;;;;106891;1256;60625;-80
2023/12/30 00:17:49;;;;;;;;;;;;;;;;;;106841;1252;60638;-80
2023/12/30 00:20:16;;;;;;;;;;;;;;;;;;106857;1254;60686;-80
2023/12/30 00:22:43;;;;;;;;;;;;;;;;;;106803;1256;61740;-80
2023/12/30 00:25:10;;;;;;;;;;;;;;;;;;107090;1257;60661;-80
2023/12/30 00:27:36;;;;;;;;;;;;;;;;;;106753;1254;62786;-80
2023/12/30 00:30:03;;;;;;;;;;;;;;;;;;106743;1255;62725;-80
2023/12/30 00:32:29;;;;;;;;;;;;;;;;;;106770;1252;61595;-80
2023/12/30 00:34:55;;;;;;;;;;;;;;;;;;106919;1254;60639;-80
2023/12/30 00:37:22;;;;;;;;;;;;;;;;;;106894;1255;62277;-80
2023/12/30 00:39:49;;;;;;;;;;;;;;;;;;106784;1256;62919;-80
2023/12/30 00:42:15;;;;;;;;;;;;;;;;;;106832;1256;60712;-80
2023/12/30 00:44:42;;;;;;;;;;;;;;;;;;106729;1254;60630;-80
2023/12/30 00:47:09;;;;;;;;;;;;;;;;;;106895;1256;61895;-80
2023/12/30 00:49:35;;;;;;;;;;;;;;;;;;106836;1254;61174;-81
2023/12/30 00:52:02;;;;;;;;;;;;;;;;;;106758;1256;60637;-80
2023/12/30 00:54:28;;;;;;;;;;;;;;;;;;106721;1254;61541;-80
2023/12/30 00:56:54;;;;;;;;;;;;;;;;;;106873;1254;61542;-80
2023/12/30 00:59:21;;;;;;;;;;;;;;;;;;106926;1256;60105;-80
2023/12/30 01:01:47;;;;;;;;;;;;;;;;;;107378;1256;61546;-80
2023/12/30 01:04:13;;;;;;;;;;;;;;;;;;107337;1254;60656;-80
2023/12/30 01:06:40;;;;;;;;;;;;;;;;;;107357;1253;61687;-80
2023/12/30 01:09:06;;;;;;;;;;;;;;;;;;107247;1257;60569;-80
2023/12/30 01:11:33;;;;;;;;;;;;;;;;;;107443;1256;60553;-80
2023/12/30 01:13:59;;;;;;;;;;;;;;;;;;106881;1254;60556;-80
2023/12/30 01:16:26;;;;;;;;;;;;;;;;;;106855;1254;62542;-80
2023/12/30 01:18:52;;;;;;;;;;;;;;;;;;106731;1252;61655;-80
2023/12/30 01:21:18;;;;;;;;;;;;;;;;;;106716;1253;60741;-80
2023/12/30 01:23:45;;;;;;;;;;;;;;;;;;106806;1253;60689;-80
2023/12/30 01:26:11;;;;;;;;;;;;;;;;;;106866;1254;61651;-80
2023/12/30 01:28:38;;;;;;;;;;;;;;;;;;106921;1256;60614;-80
2023/12/30 01:31:04;;;;;;;;;;;;;;;;;;106795;1254;61693;-80
2023/12/30 01:33:30;;;;;;;;;;;;;;;;;;106858;1256;60708;-80
2023/12/30 01:35:57;;;;;;;;;;;;;;;;;;106817;1253;60005;-80
2023/12/30 01:38:23;;;;;;;;;;;;;;;;;;106804;1254;60580;-80
2023/12/30 01:40:49;;;;;;;;;;;;;;;;;;106791;1254;60612;-80
2023/12/30 01:43:16;;;;;;;;;;;;;;;;;;106773;1253;62972;-80
2023/12/30 01:45:42;;;;;;;;;;;;;;;;;;106849;1254;59955;-80
2023/12/30 01:48:09;;;;;;;;;;;;;;;;;;106925;1254;60701;-80
2023/12/30 01:50:35;;;;;;;;;;;;;;;;;;107066;1256;60707;-80
2023/12/30 01:53:01;;;;;;;;;;;;;;;;;;107017;1254;60072;-80
2023/12/30 01:55:28;;;;;;;;;;;;;;;;;;107259;1253;60615;-80
2023/12/30 01:57:54;;;;;;;;;;;;;;;;;;106736;1254;62853;-80
2023/12/30 02:00:21;;;;;;;;;;;;;;;;;;106607;1252;60614;-80
2023/12/30 02:02:47;;;;;;;;;;;;;;;;;;106883;1254;61722;-80
2023/12/30 02:05:14;;;;;;;;;;;;;;;;;;106940;1253;61757;-80
2023/12/30 02:07:40;;;;;;;;;;;;;;;;;;106983;1256;61759;-79
2023/12/30 02:10:06;;;;;;;;;;;;;;;;;;107028;1256;60723;-80
2023/12/30 02:12:33;;;;;;;;;;;;;;;;;;107062;1254;61734;-80
2023/12/30 02:14:59;;;;;;;;;;;;;;;;;;107427;1256;61755;-80
2023/12/30 02:17:26;;;;;;;;;;;;;;;;;;107891;1257;60433;-80
2023/12/30 02:19:52;;;;;;;;;;;;;;;;;;107911;1254;60490;-80
2023/12/30 02:22:18;;;;;;;;;;;;;;;;;;108228;1254;60552;-80
2023/12/30 02:24:45;;;;;;;;;;;;;;;;;;108701;1253;60590;-80
2023/12/30 02:27:11;;;;;;;;;;;;;;;;;;107743;1257;60577;-81
2023/12/30 02:29:37;;;;;;;;;;;;;;;;;;108150;1253;60025;-80
2023/12/30 02:32:04;;;;;;;;;;;;;;;;;;109531;1254;60011;-80
2023/12/30 02:34:30;;;;;;;;;;;;;;;;;;109518;1254;59689;-81
2023/12/30 02:36:57;;;;;;;;;;;;;;;;;;109519;1253;59828;-80
2023/12/30 02:39:23;;;;;;;;;;;;;;;;;;109479;1254;59597;-80
2023/12/30 02:41:49;;;;;;;;;;;;;;;;;;107744;1254;62674;-80
2023/12/30 02:44:18;;;;;;;;;;;;;;;;;;107375;1254;61731;-80
2023/12/30 02:46:45;;;;;;;;;;;;;;;;;;107343;1253;60731;-80
2023/12/30 02:49:11;;;;;;;;;;;;;;;;;;107156;1254;61843;-80
2023/12/30 02:51:37;;;;;;;;;;;;;;;;;;107326;1254;61252;-80
2023/12/30 02:54:04;;;;;;;;;;;;;;;;;;106872;1254;61873;-80
2023/12/30 02:56:30;;;;;;;;;;;;;;;;;;106936;1253;62802;-80
2023/12/30 02:58:57;;;;;;;;;;;;;;;;;;106828;1255;62859;-80
2023/12/30 03:01:24;;;;;;;;;;;;;;;;;;106876;1254;62004;-80
2023/12/30 03:03:50;;;;;;;;;;;;;;;;;;106855;1256;62916;-80
2023/12/30 03:06:16;;;;;;;;;;;;;;;;;;106889;1253;62778;-80
2023/12/30 03:08:43;;;;;;;;;;;;;;;;;;106848;1254;60982;-80
2023/12/30 03:11:09;;;;;;;;;;;;;;;;;;106923;1254;62952;-80
2023/12/30 03:13:35;;;;;;;;;;;;;;;;;;106875;1254;60586;-81
2023/12/30 03:16:02;;;;;;;;;;;;;;;;;;106864;1254;60694;-80
2023/12/30 03:18:28;;;;;;;;;;;;;;;;;;106824;1254;63007;-80
2023/12/30 03:20:55;;;;;;;;;;;;;;;;;;106888;1254;61552;-80
2023/12/30 03:23:21;;;;;;;;;;;;;;;;;;106861;1254;60608;-80
2023/12/30 03:25:47;;;;;;;;;;;;;;;;;;106758;1254;60637;-80
2023/12/30 03:28:14;;;;;;;;;;;;;;;;;;106842;1254;62769;-80
2023/12/30 03:30:41;;;;;;;;;;;;;;;;;;109480;1253;60002;-80
2023/12/30 03:33:07;;;;;;;;;;;;;;;;;;109487;1252;59707;-80
2023/12/30 03:35:34;;;;;;;;;;;;;;;;;;109484;1253;59979;-80
2023/12/30 03:38:00;;;;;;;;;;;;;;;;;;108991;1254;60726;-80
2023/12/30 03:40:26;;;;;;;;;;;;;;;;;;106892;1254;60576;-80
2023/12/30 03:42:53;;;;;;;;;;;;;;;;;;106850;1254;60630;-80
2023/12/30 03:45:19;;;;;;;;;;;;;;;;;;106887;1254;60633;-79
2023/12/30 03:47:46;;;;;;;;;;;;;;;;;;106798;1256;60059;-80
2023/12/30 03:50:12;;;;;;;;;;;;;;;;;;106918;1254;60728;-80
2023/12/30 03:52:38;;;;;;;;;;;;;;;;;;106810;1253;60634;-81
2023/12/30 03:55:05;;;;;;;;;;;;;;;;;;106856;1254;60947;-81
2023/12/30 03:57:32;;;;;;;;;;;;;;;;;;106873;1254;59950;-80
2023/12/30 03:59:58;;;;;;;;;;;;;;;;;;106827;1254;61748;-80
2023/12/30 04:02:25;;;;;;;;;;;;;;;;;;107629;1254;60776;-80
2023/12/30 04:04:51;;;;;;;;;;;;;;;;;;109483;1252;59665;-80
2023/12/30 04:07:18;;;;;;;;;;;;;;;;;;109470;1254;59646;-80
2023/12/30 04:09:44;;;;;;;;;;;;;;;;;;109459;1253;59759;-80
2023/12/30 04:12:11;;;;;;;;;;;;;;;;;;109518;1252;59751;-80
2023/12/30 04:14:37;;;;;;;;;;;;;;;;;;109520;1253;59753;-80
2023/12/30 04:17:03;;;;;;;;;;;;;;;;;;109479;1252;59699;-80
2023/12/30 04:19:30;;;;;;;;;;;;;;;;;;109478;1252;60013;-80
2023/12/30 04:21:56;;;;;;;;;;;;;;;;;;107471;1251;62744;-80
2023/12/30 04:24:22;;;;;;;;;;;;;;;;;;106910;1253;62879;-80
2023/12/30 04:26:50;;;;;;;;;;;;;;;;;;106961;1253;62661;-80
2023/12/30 04:29:16;;;;;;;;;;;;;;;;;;106941;1251;61727;-80
2023/12/30 04:31:42;;;;;;;;;;;;;;;;;;107015;1251;60658;-80
2023/12/30 04:34:09;;;;;;;;;;;;;;;;;;106988;1251;61797;-80
2023/12/30 04:36:35;;;;;;;;;;;;;;;;;;107026;1255;60550;-80
2023/12/30 04:39:01;;;;;;;;;;;;;;;;;;107062;1251;60627;-80
2023/12/30 04:41:28;;;;;;;;;;;;;;;;;;107049;1254;62758;-80
2023/12/30 04:43:54;;;;;;;;;;;;;;;;;;106833;1253;62790;-80
2023/12/30 04:46:20;;;;;;;;;;;;;;;;;;106828;1254;62663;-80
2023/12/30 04:48:52;;;;;;;;;;;;;;;;;;106895;1254;61611;-80
2023/12/30 04:51:18;;;;;;;;;;;;;;;;;;106798;1254;62715;-80
2023/12/30 04:53:45;;;;;;;;;;;;;;;;;;108205;1253;60613;-80
2023/12/30 04:56:11;;;;;;;;;;;;;;;;;;109479;1254;59950;-80
2023/12/30 04:58:37;;;;;;;;;;;;;;;;;;109494;1253;59938;-80
2023/12/30 05:01:04;;;;;;;;;;;;;;;;;;109503;1253;59696;-80
2023/12/30 05:03:30;;;;;;;;;;;;;;;;;;109522;1253;59762;-80
2023/12/30 05:05:57;;;;;;;;;;;;;;;;;;107351;1254;60625;-80
2023/12/30 05:08:23;;;;;;;;;;;;;;;;;;106893;1253;60573;-80
2023/12/30 05:10:49;;;;;;;;;;;;;;;;;;106963;1256;60133;-80
2023/12/30 05:13:16;;;;;;;;;;;;;;;;;;107001;1252;62779;-80
2023/12/30 05:15:43;;;;;;;;;;;;;;;;;;106949;1254;62530;-80
2023/12/30 05:18:09;;;;;;;;;;;;;;;;;;106977;1254;60634;-80
2023/12/30 05:20:35;;;;;;;;;;;;;;;;;;106886;1254;61625;-80
2023/12/30 05:23:02;;;;;;;;;;;;;;;;;;106918;1254;60647;-81
2023/12/30 05:25:28;;;;;;;;;;;;;;;;;;106912;1254;60724;-82
2023/12/30 05:27:55;;;;;;;;;;;;;;;;;;107433;1253;60640;-80
2023/12/30 05:30:21;;;;;;;;;;;;;;;;;;107991;1253;62677;-80
2023/12/30 05:32:47;;;;;;;;;;;;;;;;;;109464;1253;59697;-80
2023/12/30 05:35:14;;;;;;;;;;;;;;;;;;106908;1254;61832;-80
2023/12/30 05:37:40;;;;;;;;;;;;;;;;;;106791;1252;60735;-80
2023/12/30 05:40:06;;;;;;;;;;;;;;;;;;106890;1254;60600;-80
2023/12/30 05:42:33;;;;;;;;;;;;;;;;;;106812;1254;61401;-80
2023/12/30 05:44:59;;;;;;;;;;;;;;;;;;106834;1256;60572;-80
2023/12/30 05:47:25;;;;;;;;;;;;;;;;;;106776;1252;60547;-80
2023/12/30 05:49:52;;;;;;;;;;;;;;;;;;106850;1253;61741;-80
2023/12/30 05:52:18;;;;;;;;;;;;;;;;;;106891;1254;61741;-80
2023/12/30 05:54:45;;;;;;;;;;;;;;;;;;106826;1254;61247;-80
2023/12/30 05:57:11;;;;;;;;;;;;;;;;;;106942;1252;61910;-79
2023/12/30 05:59:39;;;;;;;;;;;;;;;;;;106928;1256;60862;-80
2023/12/30 06:02:05;;;;;;;;;;;;;;;;;;107035;1254;60184;-80
2023/12/30 06:04:31;;;;;;;;;;;;;;;;;;106933;1253;60656;-80
2023/12/30 06:06:58;;;;;;;;;;;;;;;;;;106840;1254;62958;-80
2023/12/30 06:09:24;;;;;;;;;;;;;;;;;;107012;1254;60611;-81
2023/12/30 06:11:51;;;;;;;;;;;;;;;;;;106955;1254;62917;-81
2023/12/30 06:14:17;;;;;;;;;;;;;;;;;;106960;1253;62873;-80
2023/12/30 06:16:44;;;;;;;;;;;;;;;;;;106790;1252;61740;-81
2023/12/30 06:19:10;;;;;;;;;;;;;;;;;;106883;1254;60711;-79
2023/12/30 06:21:36;;;;;;;;;;;;;;;;;;106820;1252;61675;-80
2023/12/30 06:24:03;;;;;;;;;;;;;;;;;;106927;1254;61613;-80
2023/12/30 06:26:29;;;;;;;;;;;;;;;;;;106969;1254;60610;-80
2023/12/30 06:28:56;;;;;;;;;;;;;;;;;;107315;1253;61619;-80
2023/12/30 06:31:22;;;;;;;;;;;;;;;;;;107240;1253;61702;-80
2023/12/30 06:33:48;;;;;;;;;;;;;;;;;;108374;1253;364226;-80
2023/12/30 06:36:15;;;;;;;;;;;;;;;;;;109504;1251;60967;-79
2023/12/30 06:38:41;;;;;;;;;;;;;;;;;;109524;1251;59638;-80
2023/12/30 06:41:07;;;;;;;;;;;;;;;;;;109590;1252;60023;-80
2023/12/30 06:43:34;;;;;;;;;;;;;;;;;;109499;1253;59657;-81
2023/12/30 06:46:00;;;;;;;;;;;;;;;;;;109471;1253;59882;-80
2023/12/30 06:48:26;;;;;;;;;;;;;;;;;;109480;1253;59574;-80
2023/12/30 06:50:54;;;;;;;;;;;;;;;;;;109476;1253;59901;-81
2023/12/30 06:53:20;;;;;;;;;;;;;;;;;;108349;1254;60685;-80
2023/12/30 06:55:46;;;;;;;;;;;;;;;;;;106869;1254;61801;-80
2023/12/30 06:58:13;;;;;;;;;;;;;;;;;;106805;1252;60028;-80
2023/12/30 07:00:39;;;;;;;;;;;;;;;;;;106813;1253;60576;-81
2023/12/30 07:03:06;;;;;;;;;;;;;;;;;;106867;1254;60714;-80
2023/12/30 07:05:35;;;;;;;;;;;;;;;;;;106864;1253;62475;-80
2023/12/30 07:08:02;;;;;;;;;;;;;;;;;;106843;1254;61811;-80
2023/12/30 07:10:28;;;;;;;;;;;;;;;;;;106830;1252;61945;-80
2023/12/30 07:12:55;;;;;;;;;;;;;;;;;;106827;1254;60556;-80
2023/12/30 07:15:21;;;;;;;;;;;;;;;;;;107021;1254;60626;-80
2023/12/30 07:17:49;;;;;;;;;;;;;;;;;;106934;1254;60015;-80
2023/12/30 07:20:16;;;;;;;;;;;;;;;;;;106859;1254;60638;-80
2023/12/30 07:22:42;;;;;;;;;;;;;;;;;;106934;1253;61651;-79
2023/12/30 07:25:08;;;;;;;;;;;;;;;;;;106912;1254;60085;-80
2023/12/30 07:27:35;;;;;;;;;;;;;;;;;;106856;1254;60742;-80
2023/12/30 07:30:01;;;;;;;;;;;;;;;;;;106895;1254;60651;-80
2023/12/30 07:32:28;;;;;;;;;;;;;;;;;;106937;1254;60649;-80
2023/12/30 07:34:54;;;;;;;;;;;;;;;;;;107023;1254;60650;-80
2023/12/30 07:37:21;;;;;;;;;;;;;;;;;;107011;1252;62862;-80
2023/12/30 07:39:49;;;;;;;;;;;;;;;;;;106993;1254;60738;-80
2023/12/30 07:42:16;;;;;;;;;;;;;;;;;;107026;1254;61046;-80
2023/12/30 07:44:42;;;;;;;;;;;;;;;;;;106967;1254;61219;-80
2023/12/30 07:47:09;;;;;;;;;;;;;;;;;;107029;1254;61697;-80
2023/12/30 07:49:35;;;;;;;;;;;;;;;;;;106978;1254;60563;-80
2023/12/30 07:52:02;;;;;;;;;;;;;;;;;;107027;1253;61549;-80
2023/12/30 07:54:28;;;;;;;;;;;;;;;;;;106985;1254;61812;-79
2023/12/30 07:56:55;;;;;;;;;;;;;;;;;;106891;1254;60561;-80
2023/12/30 07:59:22;;;;;;;;;;;;;;;;;;106974;1253;61758;-81
2023/12/30 08:01:48;;;;;;;;;;;;;;;;;;106934;1253;61740;-80
2023/12/30 08:04:15;;;;;;;;;;;;;;;;;;108314;1253;60671;-80
2023/12/30 08:06:41;;;;;;;;;;;;;;;;;;109458;1253;59937;-80
2023/12/30 08:09:07;;;;;;;;;;;;;;;;;;109440;1253;59790;-80
2023/12/30 08:11:34;;;;;;;;;;;;;;;;;;109412;1252;59636;-80
2023/12/30 08:14:00;;;;;;;;;;;;;;;;;;109002;1253;59716;-81
2023/12/30 08:16:27;;;;;;;;;;;;;;;;;;106957;1253;60706;-80
2023/12/30 08:18:53;;;;;;;;;;;;;;;;;;106917;1253;61706;-80
2023/12/30 08:21:20;;;;;;;;;;;;;;;;;;109457;1253;59989;-81
2023/12/30 08:23:46;;;;;;;;;;;;;;;;;;109429;1253;60015;-81
2023/12/30 08:26:13;;;;;;;;;;;;;;;;;;109479;1253;59778;-81
2023/12/30 08:28:39;;;;;;;;;;;;;;;;;;107444;1253;60628;-80
2023/12/30 08:31:05;;;;;;;;;;;;;;;;;;107467;1253;61739;-80
2023/12/30 08:33:32;;;;;;;;;;;;;;;;;;107538;1254;62636;-80
2023/12/30 08:35:58;;;;;;;;;;;;;;;;;;107531;1253;61599;-81
2023/12/30 08:38:24;;;;;;;;;;;;;;;;;;106962;1254;61654;-80
2023/12/30 08:40:51;;;;;;;;;;;;;;;;;;106992;1253;60532;-80
2023/12/30 08:43:17;;;;;;;;;;;;;;;;;;106968;1254;61678;-80
2023/12/30 08:45:44;;;;;;;;;;;;;;;;;;106950;1256;61702;-80
2023/12/30 08:48:10;;;;;;;;;;;;;;;;;;109459;1253;59748;-80
2023/12/30 08:50:37;;;;;;;;;;;;;;;;;;109493;1252;59771;-80
2023/12/30 08:53:03;;;;;;;;;;;;;;;;;;109425;1253;59645;-80
2023/12/30 08:55:30;;;;;;;;;;;;;;;;;;109455;1253;59829;-80
2023/12/30 08:57:57;;;;;;;;;;;;;;;;;;109475;1254;59745;-80
2023/12/30 09:00:23;;;;;;;;;;;;;;;;;;109429;1252;59745;-80
2023/12/30 09:02:54;;;;;;;;;;;;;;;;;;109466;1253;59903;-80
2023/12/30 09:05:21;;;;;;;;;;;;;;;;;;109466;1253;63860;-80
2023/12/30 09:07:48;;;;;;;;;;;;;;;;;;108597;1253;60649;-79
2023/12/30 09:10:15;;;;;;;;;;;;;;;;;;109478;1252;59709;-80
2023/12/30 09:12:41;;;;;;;;;;;;;;;;;;108750;1253;60103;-80
2023/12/30 09:15:08;;;;;;;;;;;;;;;;;;107027;1253;60612;-80
2023/12/30 09:17:34;;;;;;;;;;;;;;;;;;106978;1253;61617;-80
2023/12/30 09:20:01;;;;;;;;;;;;;;;;;;106965;1253;60722;-80
2023/12/30 09:22:27;;;;;;;;;;;;;;;;;;106954;1253;61541;-80
2023/12/30 09:24:54;;;;;;;;;;;;;;;;;;106910;1253;62667;-80
2023/12/30 09:27:21;;;;;;;;;;;;;;;;;;107001;1252;61610;-80
2023/12/30 09:29:47;;;;;;;;;;;;;;;;;;106985;1254;63411;-80
2023/12/30 09:32:14;;;;;;;;;;;;;;;;;;106863;1254;60569;-80
2023/12/30 09:34:40;;;;;;;;;;;;;;;;;;106901;1253;62575;-80
2023/12/30 09:37:06;;;;;;;;;;;;;;;;;;106864;1254;61657;-79
2023/12/30 09:39:33;;;;;;;;;;;;;;;;;;106895;1253;61707;-80
2023/12/30 09:41:59;;;;;;;;;;;;;;;;;;106836;1253;60509;-80
2023/12/30 09:44:26;;;;;;;;;;;;;;;;;;106923;1254;60660;-79
2023/12/30 09:46:52;;;;;;;;;;;;;;;;;;107003;1253;62821;-80
2023/12/30 09:49:18;;;;;;;;;;;;;;;;;;106891;1254;61665;-80
2023/12/30 09:51:45;;;;;;;;;;;;;;;;;;107003;1253;62651;-81
2023/12/30 09:54:11;;;;;;;;;;;;;;;;;;106657;1254;60627;-80
2023/12/30 09:56:37;;;;;;;;;;;;;;;;;;106708;1254;62835;-80
2023/12/30 09:59:04;;;;;;;;;;;;;;;;;;106555;1253;61664;-81
2023/12/30 10:01:30;;;;;;;;;;;;;;;;;;106644;1254;60558;-80
2023/12/30 10:03:57;;;;;;;;;;;;;;;;;;107078;1252;60186;-81
2023/12/30 10:06:23;;;;;;;;;;;;;;;;;;107082;1256;61456;-81
2023/12/30 10:08:51;;;;;;;;;;;;;;;;;;107247;1254;60718;-81
2023/12/30 10:11:17;;;;;;;;;;;;;;;;;;107337;1251;60618;-81
2023/12/30 10:13:43;;;;;;;;;;;;;;;;;;107322;1254;62875;-79
2023/12/30 10:16:10;;;;;;;;;;;;;;;;;;107104;1253;60635;-80
2023/12/30 10:18:37;;;;;;;;;;;;;;;;;;106916;1254;60643;-80
2023/12/30 10:21:06;;;;;;;;;;;;;;;;;;106843;1254;60687;-81
2023/12/30 10:23:33;;;;;;;;;;;;;;;;;;106850;1256;61725;-80
2023/12/30 10:25:59;;;;;;;;;;;;;;;;;;107132;1252;60654;-80
2023/12/30 10:28:27;;;;;;;;;;;;;;;;;;106772;1251;62784;-80
2023/12/30 10:30:53;;;;;;;;;;;;;;;;;;106661;1252;63343;-80
2023/12/30 10:33:19;;;;;;;;;;;;;;;;;;106620;1254;61367;-81
2023/12/30 10:35:46;;;;;;;;;;;;;;;;;;106685;1254;60807;-80
2023/12/30 10:38:12;;;;;;;;;;;;;;;;;;106584;1254;61683;-80
2023/12/30 10:40:38;;;;;;;;;;;;;;;;;;106602;1254;60647;-80
2023/12/30 10:43:05;;;;;;;;;;;;;;;;;;106606;1254;60067;-81
2023/12/30 10:45:31;;;;;;;;;;;;;;;;;;106539;1256;60718;-80
2023/12/30 10:47:58;;;;;;;;;;;;;;;;;;106589;1253;60721;-80
2023/12/30 10:50:26;;;;;;;;;;;;;;;;;;106598;1254;61483;-80
2023/12/30 10:52:52;;;;;;;;;;;;;;;;;;106625;1255;60497;-80
2023/12/30 10:55:18;;;;;;;;;;;;;;;;;;106518;1253;60592;-80
2023/12/30 10:57:45;;;;;;;;;;;;;;;;;;106663;1256;61803;-80
2023/12/30 11:00:14;;;;;;;;;;;;;;;;;;106635;1253;60701;-80
2023/12/30 11:02:40;;;;;;;;;;;;;;;;;;106565;1254;60566;-80
2023/12/30 11:05:07;;;;;;;;;;;;;;;;;;106709;1254;60665;-80
2023/12/30 11:07:34;;;;;;;;;;;;;;;;;;106649;1254;61752;-80
2023/12/30 11:10:00;;;;;;;;;;;;;;;;;;106649;1253;60649;-80
2023/12/30 11:12:29;;;;;;;;;;;;;;;;;;106676;1254;60587;-82
2023/12/30 11:14:56;;;;;;;;;;;;;;;;;;106572;1252;60619;-80
2023/12/30 11:17:22;;;;;;;;;;;;;;;;;;106609;1253;60670;-81
2023/12/30 11:19:48;;;;;;;;;;;;;;;;;;106672;1254;60771;-80
2023/12/30 11:22:15;;;;;;;;;;;;;;;;;;106662;1256;60588;-81
2023/12/30 11:24:42;;;;;;;;;;;;;;;;;;106578;1253;61620;-80
2023/12/30 11:27:08;;;;;;;;;;;;;;;;;;106573;1254;60717;-81
2023/12/30 11:29:35;;;;;;;;;;;;;;;;;;106559;1254;60540;-80
2023/12/30 11:32:01;;;;;;;;;;;;;;;;;;106566;1253;60603;-80
2023/12/30 11:34:28;;;;;;;;;;;;;;;;;;106694;1256;60637;-80
2023/12/30 11:36:54;;;;;;;;;;;;;;;;;;106589;1254;60707;-81
2023/12/30 11:39:20;;;;;;;;;;;;;;;;;;106476;1253;60769;-80
2023/12/30 11:41:47;;;;;;;;;;;;;;;;;;106554;1253;60640;-80
2023/12/30 11:44:13;;;;;;;;;;;;;;;;;;106660;1256;60709;-80
2023/12/30 11:46:39;;;;;;;;;;;;;;;;;;106593;1253;60695;-80
2023/12/30 11:49:07;;;;;;;;;;;;;;;;;;106654;1253;61805;-80
2023/12/30 11:51:34;;;;;;;;;;;;;;;;;;106592;1256;60617;-80
2023/12/30 11:54:00;;;;;;;;;;;;;;;;;;106665;1253;60574;-80
2023/12/30 11:56:27;;;;;;;;;;;;;;;;;;106656;1254;61750;-80
2023/12/30 11:58:54;;;;;;;;;;;;;;;;;;106684;1253;60578;-80
2023/12/30 12:01:20;;;;;;;;;;;;;;;;;;106686;1254;62757;-81
2023/12/30 12:03:47;;;;;;;;;;;;;;;;;;106921;1253;60643;-81
2023/12/30 12:06:14;;;;;;;;;;;;;;;;;;106538;1253;60501;-80
2023/12/30 12:08:40;;;;;;;;;;;;;;;;;;106570;1253;60543;-81
2023/12/30 12:11:06;;;;;;;;;;;;;;;;;;106686;1253;61672;-81
2023/12/30 12:13:33;;;;;;;;;;;;;;;;;;106669;1254;60662;-80
2023/12/30 12:15:59;;;;;;;;;;;;;;;;;;106694;1254;60629;-80
2023/12/30 12:18:25;;;;;;;;;;;;;;;;;;106691;1256;60570;-80
2023/12/30 12:20:52;;;;;;;;;;;;;;;;;;106787;1254;60636;-80
2023/12/30 12:23:18;;;;;;;;;;;;;;;;;;106629;1254;60803;-81
2023/12/30 12:25:45;;;;;;;;;;;;;;;;;;106928;1254;61121;-80
2023/12/30 12:28:11;;;;;;;;;;;;;;;;;;107229;1253;61680;-80
2023/12/30 12:30:37;;;;;;;;;;;;;;;;;;108355;1254;60711;-80
2023/12/30 12:33:04;;;;;;;;;;;;;;;;;;106862;1254;60591;-80
2023/12/30 12:35:30;;;;;;;;;;;;;;;;;;106783;1254;60715;-81
2023/12/30 12:37:57;;;;;;;;;;;;;;;;;;106759;1254;60606;-80
2023/12/30 12:40:23;;;;;;;;;;;;;;;;;;106623;1256;60651;-81
2023/12/30 12:42:50;;;;;;;;;;;;;;;;;;107002;1253;60642;-80
2023/12/30 12:45:16;;;;;;;;;;;;;;;;;;107103;1253;60113;-80
2023/12/30 12:47:42;;;;;;;;;;;;;;;;;;106942;1253;60738;-81
2023/12/30 12:50:09;;;;;;;;;;;;;;;;;;106986;1253;61691;-80
2023/12/30 12:52:35;;;;;;;;;;;;;;;;;;106940;1253;60698;-80
2023/12/30 12:55:02;;;;;;;;;;;;;;;;;;107120;1252;60635;-80
2023/12/30 12:57:29;;;;;;;;;;;;;;;;;;107028;1254;61758;-80
2023/12/30 12:59:55;;;;;;;;;;;;;;;;;;107060;1254;60573;-81
2023/12/30 13:02:23;;;;;;;;;;;;;;;;;;107014;1254;60677;-80
2023/12/30 13:04:49;;;;;;;;;;;;;;;;;;107030;1254;61397;-81
2023/12/30 13:07:16;;;;;;;;;;;;;;;;;;107090;1254;60550;-80
2023/12/30 13:10:12;;;;;;;;;;;;;;;;;;106904;1254;61853;-80
2023/12/30 13:12:32;;;;;;;;;;;;;;;;;;107049;1254;61749;-80
2023/12/30 13:14:59;;;;;;;;;;;;;;;;;;107006;1254;61654;-80
2023/12/30 13:17:25;;;;;;;;;;;;;;;;;;106972;1253;60661;-80
2023/12/30 13:19:52;;;;;;;;;;;;;;;;;;107082;1253;60641;-81
2023/12/30 13:22:19;;;;;;;;;;;;;;;;;;107196;1253;61816;-79
2023/12/30 13:24:47;;;;;;;;;;;;;;;;;;107043;1254;60020;-79
2023/12/30 13:27:14;;;;;;;;;;;;;;;;;;107035;1253;61837;-80
2023/12/30 13:29:41;;;;;;;;;;;;;;;;;;107019;1254;60742;-80
2023/12/30 13:32:07;;;;;;;;;;;;;;;;;;106599;1253;60604;-80
2023/12/30 13:34:34;;;;;;;;;;;;;;;;;;106661;1254;61844;-80
2023/12/30 13:37:05;;;;;;;;;;;;;;;;;;106597;1256;60536;-80
2023/12/30 13:39:33;;;;;;;;;;;;;;;;;;106653;1254;60633;-81
2023/12/30 13:42:04;;;;;;;;;;;;;;;;;;106488;1253;61205;-81
2023/12/30 13:44:35;;;;;;;;;;;;;;;;;;106475;1256;61581;-81
2023/12/30 13:47:34;;;;;;;;;;;;;;;;;;106505;1253;63968;-80
2023/12/30 13:52:33;;;;;;;;;;;;;;;;;;106490;1258;60582;-79
2023/12/30 13:55:00;;;;;;;;;;;;;;;;;;106567;1254;60642;-80
2023/12/30 13:57:29;;;;;;;;;;;;;;;;;;106530;1254;62774;-80
2023/12/30 13:59:55;;;;;;;;;;;;;;;;;;106584;1254;62735;-80
2023/12/30 14:02:24;;;;;;;;;;;;;;;;;;106517;1254;60629;-80
2023/12/30 14:04:54;;;;;;;;;;;;;;;;;;106634;1254;60574;-80
2023/12/30 14:07:26;;;;;;;;;;;;;;;;;;106476;1252;60629;-81
2023/12/30 14:10:00;;;;;;;;;;;;;;;;;;106657;1252;60487;-80
2023/12/30 14:12:29;;;;;;;;;;;;;;;;;;106637;1254;63587;-80
2023/12/30 14:14:56;;;;;;;;;;;;;;;;;;106627;1253;62874;-80
2023/12/30 14:17:24;;;;;;;;;;;;;;;;;;106510;1253;60642;-80
2023/12/30 14:19:50;;;;;;;;;;;;;;;;;;106516;1254;60701;-81
2023/12/30 14:22:20;;;;;;;;;;;;;;;;;;106478;1256;60659;-80
2023/12/30 14:24:46;;;;;;;;;;;;;;;;;;106448;1254;62580;-80
2023/12/30 14:27:16;;;;;;;;;;;;;;;;;;106458;1254;62693;-80
2023/12/30 14:29:48;;;;;;;;;;;;;;;;;;106418;1254;61601;-80
2023/12/30 14:32:14;;;;;;;;;;;;;;;;;;106639;1254;60662;-80
2023/12/30 14:34:41;;;;;;;;;;;;;;;;;;106803;1254;61704;-80
2023/12/30 14:37:08;;;;;;;;;;;;;;;;;;106825;1254;60637;-80
2023/12/30 14:39:34;;;;;;;;;;;;;;;;;;108699;1254;60502;-81
2023/12/30 14:42:01;;;;;;;;;;;;;;;;;;109495;1252;59669;-80
2023/12/30 14:44:27;;;;;;;;;;;;;;;;;;108008;1252;60708;-80
2023/12/30 14:46:53;;;;;;;;;;;;;;;;;;106805;1253;61629;-80
2023/12/30 14:49:20;;;;;;;;;;;;;;;;;;106869;1254;61629;-79
2023/12/30 14:51:47;;;;;;;;;;;;;;;;;;106914;1253;60369;-80
2023/12/30 14:54:13;;;;;;;;;;;;;;;;;;106829;1254;61648;-80
2023/12/30 14:56:40;;;;;;;;;;;;;;;;;;106857;1254;60618;-80
2023/12/30 14:59:06;;;;;;;;;;;;;;;;;;106871;1252;60620;-80
2023/12/30 15:01:32;;;;;;;;;;;;;;;;;;106832;1254;61604;-81
2023/12/30 15:04:01;;;;;;;;;;;;;;;;;;106878;1254;61603;-80
2023/12/30 15:06:28;;;;;;;;;;;;;;;;;;106858;1254;61485;-80
2023/12/30 15:08:55;;;;;;;;;;;;;;;;;;106848;1253;60685;-79
2023/12/30 15:11:21;;;;;;;;;;;;;;;;;;106874;1253;60704;-79
2023/12/30 15:13:48;;;;;;;;;;;;;;;;;;106915;1253;60543;-80
2023/12/30 15:16:15;;;;;;;;;;;;;;;;;;106846;1254;61574;-80
2023/12/30 15:18:41;;;;;;;;;;;;;;;;;;106993;1253;60528;-80
2023/12/30 15:21:07;;;;;;;;;;;;;;;;;;106881;1254;60612;-80
2023/12/30 15:23:34;;;;;;;;;;;;;;;;;;106863;1254;61571;-80
2023/12/30 15:26:00;;;;;;;;;;;;;;;;;;106921;1254;60693;-80
2023/12/30 15:28:27;;;;;;;;;;;;;;;;;;109481;1253;59944;-80
2023/12/30 15:30:53;;;;;;;;;;;;;;;;;;109507;1254;59787;-80
2023/12/30 15:33:20;;;;;;;;;;;;;;;;;;107807;1253;59985;-80
2023/12/30 15:35:46;;;;;;;;;;;;;;;;;;106934;1254;60643;-80
2023/12/30 15:38:13;;;;;;;;;;;;;;;;;;106933;1254;61615;-80
2023/12/30 15:40:41;;;;;;;;;;;;;;;;;;107045;1254;60563;-80
2023/12/30 15:43:07;;;;;;;;;;;;;;;;;;107017;1254;60903;-79
2023/12/30 15:45:34;;;;;;;;;;;;;;;;;;107503;1254;61625;-80
2023/12/30 15:48:00;;;;;;;;;;;;;;;;;;107868;1254;60701;-81
2023/12/30 15:50:27;;;;;;;;;;;;;;;;;;107911;1254;61418;-79
2023/12/30 15:52:53;;;;;;;;;;;;;;;;;;108142;1254;59936;-80
2023/12/30 15:55:20;;;;;;;;;;;;;;;;;;108414;1252;60442;-79
2023/12/30 15:57:46;;;;;;;;;;;;;;;;;;107947;1254;60536;-80
2023/12/30 16:00:13;;;;;;;;;;;;;;;;;;107591;1254;60714;-80
2023/12/30 16:02:39;;;;;;;;;;;;;;;;;;107495;1254;60612;-80
2023/12/30 16:05:05;;;;;;;;;;;;;;;;;;107405;1254;60623;-80
2023/12/30 16:07:32;;;;;;;;;;;;;;;;;;107462;1254;60553;-81
2023/12/30 16:09:58;;;;;;;;;;;;;;;;;;107264;1254;60664;-80
2023/12/30 16:12:25;;;;;;;;;;;;;;;;;;107227;1254;60579;-81
2023/12/30 16:14:51;;;;;;;;;;;;;;;;;;107325;1253;60760;-81
2023/12/30 16:17:17;;;;;;;;;;;;;;;;;;107310;1254;60634;-80
2023/12/30 16:19:44;;;;;;;;;;;;;;;;;;107345;1254;60656;-79
2023/12/30 16:22:10;;;;;;;;;;;;;;;;;;106932;1254;61808;-79
2023/12/30 16:24:37;;;;;;;;;;;;;;;;;;106934;1256;59933;-79
2023/12/30 16:27:03;;;;;;;;;;;;;;;;;;106882;1254;60725;-80